createdAt,value
2017-03-16T00:00:08.156Z,0
2017-03-16T00:00:57.365Z,0
2017-03-16T00:01:45.669Z,0
2017-03-16T00:02:33.947Z,0
2017-03-16T00:03:23.463Z,0
2017-03-16T00:04:12.758Z,0
2017-03-16T00:05:01.048Z,0
2017-03-16T00:05:49.948Z,0
2017-03-16T00:06:40.268Z,0
2017-03-16T00:07:30.425Z,0
2017-03-16T00:08:21.630Z,0
2017-03-16T00:09:07.950Z,0
2017-03-16T00:10:14.571Z,0
2017-03-16T00:11:03.546Z,0
2017-03-16T00:15:03.633Z,0
2017-03-16T00:15:55.912Z,0
2017-03-16T00:16:44.513Z,0
2017-03-16T00:17:33.609Z,0
2017-03-16T00:18:24.239Z,0
2017-03-16T00:19:16.453Z,0
2017-03-16T00:20:06.236Z,0
2017-03-16T00:20:57.501Z,0
2017-03-16T00:21:44.796Z,0
2017-03-16T00:22:35.339Z,0
2017-03-16T00:23:24.006Z,0
2017-03-16T00:24:13.491Z,0
2017-03-16T00:25:02.144Z,0
2017-03-16T00:25:55.967Z,0
2017-03-16T00:26:45.942Z,0
2017-03-16T00:27:29.873Z,0
2017-03-16T00:30:09.381Z,0
2017-03-16T00:30:57.553Z,0
2017-03-16T00:31:46.318Z,0
2017-03-16T00:32:37.067Z,0
2017-03-16T00:33:23.245Z,0
2017-03-16T00:34:12.001Z,0
2017-03-16T00:35:00.647Z,0
2017-03-16T00:35:52.159Z,0
2017-03-16T00:36:40.357Z,0
2017-03-16T00:37:28.697Z,0
2017-03-16T00:38:17.592Z,0
2017-03-16T00:39:06.082Z,0
2017-03-16T00:39:54.848Z,0
2017-03-16T00:40:43.230Z,0
2017-03-16T00:41:32.072Z,0
2017-03-16T00:42:21.177Z,0
2017-03-16T00:43:09.539Z,0
2017-03-16T00:43:58.855Z,0
2017-03-16T00:44:47.334Z,0
2017-03-16T00:45:35.666Z,0
2017-03-16T00:46:25.157Z,0
2017-03-16T00:47:13.908Z,0
2017-03-16T00:48:02.328Z,0
2017-03-16T00:48:51.023Z,0
2017-03-16T00:49:34.363Z,0
2017-03-16T00:50:14.769Z,0
2017-03-16T00:50:55.856Z,0
2017-03-16T00:51:36.836Z,0
2017-03-16T00:52:17.287Z,0
2017-03-16T00:52:59.052Z,0
2017-03-16T00:53:54.486Z,0
2017-03-16T00:54:35.577Z,0
2017-03-16T00:55:16.652Z,0
2017-03-16T00:55:57.157Z,0
2017-03-16T00:56:39.399Z,0
2017-03-16T00:57:19.754Z,0
2017-03-16T00:58:03.774Z,0
2017-03-16T00:58:45.469Z,0
2017-03-16T00:59:27.731Z,0
2017-03-16T01:00:09.388Z,0
2017-03-16T01:00:50.700Z,0
2017-03-16T01:01:31.864Z,0
2017-03-16T01:02:12.876Z,0
2017-03-16T01:02:53.251Z,0
2017-03-16T01:03:33.708Z,0
2017-03-16T01:04:14.099Z,0
2017-03-16T01:04:55.116Z,0
2017-03-16T01:05:38.349Z,0
2017-03-16T01:06:18.814Z,0
2017-03-16T01:07:01.560Z,0
2017-03-16T01:07:43.015Z,0
2017-03-16T01:08:24.348Z,0
2017-03-16T01:09:06.368Z,0
2017-03-16T01:09:48.476Z,0
2017-03-16T01:10:31.326Z,0
2017-03-16T01:11:11.955Z,0
2017-03-16T01:11:52.997Z,0
2017-03-16T01:12:34.555Z,0
2017-03-16T01:13:16.395Z,0
2017-03-16T01:13:56.908Z,0
2017-03-16T01:14:39.952Z,0
2017-03-16T01:15:20.379Z,0
2017-03-16T01:16:00.810Z,0
2017-03-16T01:16:41.275Z,0
2017-03-16T01:17:22.628Z,0
2017-03-16T01:18:03.995Z,0
2017-03-16T01:18:46.193Z,0
2017-03-16T01:21:24.236Z,0
2017-03-16T01:22:12.800Z,0
2017-03-16T01:23:01.495Z,0
2017-03-16T01:23:50.098Z,0
2017-03-16T01:24:38.925Z,0
2017-03-16T01:25:27.242Z,0
2017-03-16T01:26:15.940Z,0
2017-03-16T01:27:04.606Z,0
2017-03-16T01:27:53.537Z,0
2017-03-16T01:28:42.109Z,0
2017-03-16T01:29:30.329Z,0
2017-03-16T01:30:19.003Z,0
2017-03-16T01:31:07.661Z,0
2017-03-16T01:31:56.147Z,0
2017-03-16T01:32:44.834Z,0
2017-03-16T01:33:33.317Z,0
2017-03-16T01:34:21.909Z,0
2017-03-16T01:35:10.863Z,0
2017-03-16T01:37:31.452Z,0
2017-03-16T01:38:20.224Z,0
2017-03-16T01:39:08.773Z,0
2017-03-16T01:39:56.960Z,0
2017-03-16T01:40:44.796Z,0
2017-03-16T01:41:33.264Z,0
2017-03-16T01:42:21.802Z,0
2017-03-16T01:43:11.082Z,0
2017-03-16T01:43:57.195Z,0
2017-03-16T01:44:37.581Z,0
2017-03-16T01:45:20.574Z,0
2017-03-16T01:46:01.560Z,0
2017-03-16T01:46:41.970Z,0
2017-03-16T01:47:23.211Z,0
2017-03-16T01:48:04.587Z,0
2017-03-16T01:50:25.908Z,0
2017-03-16T01:51:14.471Z,0
2017-03-16T01:52:03.163Z,0
2017-03-16T01:52:51.538Z,0
2017-03-16T01:53:40.534Z,0
2017-03-16T01:54:28.904Z,0
2017-03-16T01:55:17.278Z,0
2017-03-16T01:56:05.814Z,0
2017-03-16T01:58:27.395Z,0
2017-03-16T01:59:14.717Z,0
2017-03-16T02:00:03.158Z,0
2017-03-16T02:00:51.714Z,0
2017-03-16T02:34:01.653Z,0
2017-03-16T02:34:44.250Z,0
2017-03-16T02:35:27.286Z,0
2017-03-16T02:36:07.708Z,0
2017-03-16T02:36:48.916Z,0
2017-03-16T02:37:29.329Z,0
2017-03-16T02:38:10.415Z,0
2017-03-16T02:51:44.252Z,0
2017-03-16T02:52:25.296Z,0
2017-03-16T02:53:05.692Z,0
2017-03-16T02:53:48.796Z,0
2017-03-16T02:54:29.890Z,0
2017-03-16T03:06:20.043Z,0
2017-03-16T03:07:02.166Z,0
2017-03-16T03:07:42.622Z,0
2017-03-16T03:08:23.121Z,0
2017-03-16T03:09:04.380Z,0
2017-03-16T03:09:45.352Z,0
2017-03-16T03:10:25.760Z,0
2017-03-16T03:11:06.908Z,0
2017-03-16T03:22:22.160Z,0
2017-03-16T03:23:02.545Z,0
2017-03-16T03:23:42.983Z,0
2017-03-16T03:24:25.224Z,0
2017-03-16T03:25:07.359Z,0
2017-03-16T03:25:48.310Z,0
2017-03-16T03:26:30.667Z,0
2017-03-16T03:27:11.123Z,0
2017-03-16T03:27:53.677Z,0
2017-03-16T03:28:34.256Z,0
2017-03-16T03:29:16.347Z,0
2017-03-16T03:29:56.895Z,0
2017-03-16T03:30:37.762Z,0
2017-03-16T03:31:18.295Z,0
2017-03-16T03:31:59.452Z,0
2017-03-16T03:32:42.231Z,0
2017-03-16T03:33:24.401Z,0
2017-03-16T03:34:05.667Z,0
2017-03-16T03:34:46.794Z,0
2017-03-16T03:37:18.520Z,0
2017-03-16T03:38:00.360Z,0
2017-03-16T03:38:41.502Z,0
2017-03-16T03:39:22.521Z,0
2017-03-16T03:40:02.932Z,0
2017-03-16T03:40:43.344Z,0
2017-03-16T03:41:24.363Z,0
2017-03-16T03:42:05.458Z,0
2017-03-16T03:42:47.432Z,0
2017-03-16T03:43:27.796Z,0
2017-03-16T03:44:08.224Z,0
2017-03-16T03:44:53.468Z,0
2017-03-16T03:45:34.787Z,0
2017-03-16T03:46:18.836Z,0
2017-03-16T03:47:00.852Z,0
2017-03-16T03:47:41.313Z,0
2017-03-16T03:48:22.396Z,0
2017-03-16T03:49:03.643Z,0
2017-03-16T03:49:44.022Z,0
2017-03-16T03:50:26.586Z,0
2017-03-16T03:51:07.072Z,0
2017-03-16T03:51:50.012Z,0
2017-03-16T03:52:32.956Z,0
2017-03-16T03:53:15.270Z,0
2017-03-16T03:53:58.302Z,0
2017-03-16T03:54:39.532Z,0
2017-03-16T03:57:16.853Z,0
2017-03-16T03:59:36.690Z,0
2017-03-16T04:00:25.334Z,0
2017-03-16T04:01:13.695Z,0
2017-03-16T04:01:58.008Z,0
2017-03-16T04:02:42.887Z,0
2017-03-16T04:03:24.949Z,0
2017-03-16T04:04:05.369Z,0
2017-03-16T04:04:45.726Z,0
2017-03-16T04:05:26.193Z,0
2017-03-16T04:06:07.202Z,0
2017-03-16T04:08:27.947Z,0
2017-03-16T04:09:16.428Z,0
2017-03-16T04:11:59.481Z,0
2017-03-16T04:12:47.475Z,0
2017-03-16T04:13:31.748Z,0
2017-03-16T04:14:12.803Z,0
2017-03-16T04:14:53.282Z,0
2017-03-16T04:15:34.508Z,0
2017-03-16T04:16:16.383Z,0
2017-03-16T04:16:59.675Z,0
2017-03-16T04:17:43.851Z,0
2017-03-16T04:18:25.001Z,0
2017-03-16T04:19:06.174Z,0
2017-03-16T04:19:47.432Z,0
2017-03-16T04:20:29.755Z,0
2017-03-16T04:21:10.210Z,0
2017-03-16T04:21:51.646Z,0
2017-03-16T04:22:32.044Z,0
2017-03-16T04:23:13.413Z,0
2017-03-16T04:23:54.877Z,0
2017-03-16T04:24:35.383Z,0
2017-03-16T04:25:15.872Z,0
2017-03-16T04:25:56.206Z,0
2017-03-16T04:26:37.663Z,0
2017-03-16T04:27:23.029Z,0
2017-03-16T04:28:04.387Z,0
2017-03-16T04:28:45.252Z,0
2017-03-16T04:29:26.442Z,0
2017-03-16T04:30:07.399Z,0
2017-03-16T04:30:47.762Z,0
2017-03-16T04:31:28.901Z,0
2017-03-16T04:32:10.655Z,0
2017-03-16T04:32:52.138Z,0
2017-03-16T04:33:32.547Z,0
2017-03-16T04:34:15.454Z,0
2017-03-16T04:34:56.696Z,0
2017-03-16T04:35:37.675Z,0
2017-03-16T04:36:18.920Z,0
2017-03-16T04:36:59.491Z,0
2017-03-16T04:37:40.657Z,0
2017-03-16T04:38:21.685Z,0
2017-03-16T04:39:02.400Z,0
2017-03-16T04:41:22.545Z,0
2017-03-16T04:42:08.989Z,0
2017-03-16T04:42:54.254Z,0
2017-03-16T04:45:22.153Z,0
2017-03-16T04:46:02.517Z,0
2017-03-16T04:46:42.939Z,0
2017-03-16T04:47:23.992Z,0
2017-03-16T04:48:04.627Z,0
2017-03-16T04:48:47.639Z,0
2017-03-16T04:49:28.597Z,0
2017-03-16T04:50:09.766Z,0
2017-03-16T04:50:50.091Z,0
2017-03-16T04:51:31.115Z,0
2017-03-16T04:52:13.522Z,0
2017-03-16T04:52:55.676Z,0
2017-03-16T04:53:38.077Z,0
2017-03-16T04:54:19.444Z,0
2017-03-16T04:54:59.846Z,0
2017-03-16T04:55:41.119Z,0
2017-03-16T04:56:25.119Z,0
2017-03-16T04:57:06.327Z,0
2017-03-16T04:57:46.666Z,0
2017-03-16T04:58:27.050Z,0
2017-03-16T04:59:08.099Z,0
2017-03-16T05:01:32.781Z,0
2017-03-16T05:02:21.533Z,0
2017-03-16T05:03:09.979Z,0
2017-03-16T05:03:58.723Z,0
2017-03-16T05:04:47.343Z,0
2017-03-16T05:05:35.663Z,0
2017-03-16T05:06:24.339Z,0
2017-03-16T05:07:12.744Z,0
2017-03-16T05:08:01.523Z,0
2017-03-16T05:08:52.047Z,0
2017-03-16T05:09:40.585Z,0
2017-03-16T05:10:29.050Z,0
2017-03-16T05:11:18.303Z,0
2017-03-16T05:12:06.454Z,0
2017-03-16T05:12:55.234Z,0
2017-03-16T05:24:49.466Z,0
2017-03-16T05:25:37.578Z,0
2017-03-16T05:40:52.905Z,15
2017-03-16T05:48:40.061Z,30
2017-03-16T05:49:30.539Z,30
2017-03-16T05:53:40.229Z,45
2017-03-16T05:54:29.152Z,45
2017-03-16T05:55:17.703Z,50
2017-03-16T05:57:56.314Z,55
2017-03-16T05:58:44.171Z,55
2017-03-16T05:59:36.557Z,60
2017-03-16T06:00:25.397Z,60
2017-03-16T06:01:14.807Z,65
2017-03-16T06:02:02.688Z,65
2017-03-16T06:02:51.901Z,65
2017-03-16T06:03:40.489Z,70
2017-03-16T06:04:28.919Z,70
2017-03-16T06:05:18.277Z,75
2017-03-16T06:06:06.422Z,75
2017-03-16T06:08:32.604Z,85
2017-03-16T06:09:21.637Z,85
2017-03-16T06:10:09.708Z,85
2017-03-16T06:10:58.305Z,90
2017-03-16T06:11:47.970Z,90
2017-03-16T06:12:36.370Z,95
2017-03-16T06:13:24.181Z,95
2017-03-16T06:14:13.507Z,100
2017-03-16T06:15:01.841Z,110
2017-03-16T06:15:50.289Z,115
2017-03-16T06:16:39.180Z,115
2017-03-16T06:17:28.114Z,115
2017-03-16T06:18:16.254Z,120
2017-03-16T06:19:04.953Z,125
2017-03-16T06:21:47.904Z,135
2017-03-16T06:22:36.235Z,140
2017-03-16T06:23:25.186Z,145
2017-03-16T06:24:13.912Z,145
2017-03-16T06:25:04.013Z,150
2017-03-16T06:25:52.715Z,150
2017-03-16T06:26:41.963Z,155
2017-03-16T06:27:30.551Z,155
2017-03-16T06:28:19.222Z,160
2017-03-16T06:29:07.972Z,160
2017-03-16T06:29:56.148Z,165
2017-03-16T06:30:44.830Z,165
2017-03-16T06:31:33.498Z,170
2017-03-16T06:32:22.100Z,170
2017-03-16T06:33:10.797Z,175
2017-03-16T06:33:59.522Z,175
2017-03-16T06:34:48.598Z,180
2017-03-16T06:35:36.644Z,185
2017-03-16T06:36:25.213Z,185
2017-03-16T06:37:15.934Z,190
2017-03-16T06:38:03.044Z,190
2017-03-16T06:38:51.245Z,195
2017-03-16T06:39:39.754Z,200
2017-03-16T06:40:19.620Z,200
2017-03-16T06:41:00.036Z,205
2017-03-16T06:41:41.459Z,215
2017-03-16T06:42:22.441Z,215
2017-03-16T06:43:03.585Z,215
2017-03-16T06:43:45.540Z,220
2017-03-16T06:44:25.993Z,220
2017-03-16T06:45:09.766Z,230
2017-03-16T06:45:52.185Z,225
2017-03-16T06:46:35.426Z,230
2017-03-16T06:47:17.587Z,230
2017-03-16T06:47:57.762Z,230
2017-03-16T06:48:39.913Z,230
2017-03-16T06:49:24.970Z,235
2017-03-16T06:50:05.376Z,235
2017-03-16T06:50:45.804Z,235
2017-03-16T06:51:26.722Z,235
2017-03-16T06:52:09.460Z,240
2017-03-16T06:52:51.326Z,240
2017-03-16T06:53:31.791Z,240
2017-03-16T06:54:12.201Z,245
2017-03-16T06:54:53.576Z,250
2017-03-16T06:55:34.986Z,250
2017-03-16T06:56:17.683Z,250
2017-03-16T06:56:58.760Z,250
2017-03-16T06:57:40.209Z,255
2017-03-16T06:58:24.009Z,255
2017-03-16T06:59:05.058Z,255
2017-03-16T06:59:46.416Z,255
2017-03-16T07:00:26.968Z,260
2017-03-16T07:01:07.233Z,260
2017-03-16T07:01:47.654Z,265
2017-03-16T07:02:36.025Z,265
2017-03-16T07:03:17.232Z,265
2017-03-16T07:03:59.423Z,270
2017-03-16T07:04:39.900Z,280
2017-03-16T07:05:20.965Z,275
2017-03-16T07:06:04.956Z,280
2017-03-16T07:06:45.473Z,285
2017-03-16T07:07:25.846Z,290
2017-03-16T07:08:07.167Z,295
2017-03-16T07:08:47.553Z,295
2017-03-16T07:09:28.048Z,300
2017-03-16T07:10:09.166Z,305
2017-03-16T07:10:50.055Z,305
2017-03-16T07:11:31.136Z,310
2017-03-16T07:12:12.442Z,315
2017-03-16T07:12:53.409Z,320
2017-03-16T07:13:34.528Z,330
2017-03-16T07:14:19.566Z,325
2017-03-16T07:15:16.434Z,330
2017-03-16T07:15:56.853Z,335
2017-03-16T07:16:40.615Z,340
2017-03-16T07:17:24.671Z,340
2017-03-16T07:18:05.124Z,340
2017-03-16T07:18:45.956Z,345
2017-03-16T07:19:29.941Z,355
2017-03-16T07:20:12.152Z,350
2017-03-16T07:20:53.116Z,355
2017-03-16T07:21:36.176Z,355
2017-03-16T07:22:17.905Z,355
2017-03-16T07:22:58.367Z,365
2017-03-16T07:23:38.751Z,375
2017-03-16T07:26:20.678Z,395
2017-03-16T07:27:09.606Z,400
2017-03-16T07:27:56.182Z,400
2017-03-16T07:28:44.733Z,405
2017-03-16T07:29:33.354Z,410
2017-03-16T07:30:21.944Z,415
2017-03-16T07:31:10.493Z,420
2017-03-16T07:31:59.693Z,430
2017-03-16T07:32:47.917Z,430
2017-03-16T07:33:36.164Z,430
2017-03-16T07:34:24.898Z,435
2017-03-16T07:35:13.307Z,440
2017-03-16T07:36:02.349Z,445
2017-03-16T07:36:50.698Z,445
2017-03-16T07:37:39.343Z,455
2017-03-16T07:38:27.826Z,450
2017-03-16T07:39:16.496Z,455
2017-03-16T07:40:05.241Z,455
2017-03-16T07:40:54.215Z,460
2017-03-16T07:41:44.072Z,455
2017-03-16T07:42:32.503Z,445
2017-03-16T07:43:21.254Z,445
2017-03-16T07:44:09.666Z,450
2017-03-16T07:44:58.595Z,465
2017-03-16T07:45:46.740Z,480
2017-03-16T07:48:12.490Z,495
2017-03-16T07:49:00.899Z,500
2017-03-16T07:49:49.291Z,505
2017-03-16T07:50:38.068Z,510
2017-03-16T07:51:26.675Z,515
2017-03-16T07:52:15.313Z,515
2017-03-16T07:53:04.465Z,515
2017-03-16T07:53:53.124Z,520
2017-03-16T07:54:41.038Z,530
2017-03-16T07:55:29.255Z,530
2017-03-16T07:56:18.108Z,530
2017-03-16T07:57:06.847Z,535
2017-03-16T07:57:55.108Z,540
2017-03-16T07:58:43.733Z,540
2017-03-16T07:59:32.545Z,550
2017-03-16T08:00:16.044Z,550
2017-03-16T08:00:56.984Z,555
2017-03-16T08:01:37.493Z,565
2017-03-16T08:02:19.485Z,565
2017-03-16T08:03:01.716Z,565
2017-03-16T08:03:42.136Z,570
2017-03-16T08:04:23.217Z,575
2017-03-16T08:05:03.552Z,575
2017-03-16T08:05:43.924Z,575
2017-03-16T08:06:27.009Z,580
2017-03-16T08:07:08.981Z,580
2017-03-16T08:07:50.157Z,585
2017-03-16T08:10:27.456Z,595
2017-03-16T08:11:14.360Z,595
2017-03-16T08:12:03.387Z,600
2017-03-16T08:12:51.764Z,605
2017-03-16T08:13:40.929Z,605
2017-03-16T08:14:29.103Z,615
2017-03-16T08:15:17.588Z,625
2017-03-16T08:16:06.543Z,640
2017-03-16T08:16:55.023Z,650
2017-03-16T08:17:43.933Z,675
2017-03-16T08:18:32.076Z,710
2017-03-16T08:19:20.761Z,755
2017-03-16T08:20:09.608Z,820
2017-03-16T08:20:58.147Z,885
2017-03-16T08:21:46.778Z,925
2017-03-16T08:22:35.449Z,955
2017-03-16T08:23:23.982Z,985
2017-03-16T08:24:12.736Z,1000
2017-03-16T08:25:01.323Z,1005
2017-03-16T08:25:50.103Z,1015
2017-03-16T08:26:38.934Z,1030
2017-03-16T08:27:27.294Z,1025
2017-03-16T08:28:16.050Z,1025
2017-03-16T08:29:04.651Z,1045
2017-03-16T08:29:53.414Z,1060
2017-03-16T08:30:42.292Z,1090
2017-03-16T08:31:30.587Z,1110
2017-03-16T08:32:19.105Z,1125
2017-03-16T08:33:07.859Z,1145
2017-03-16T08:33:56.075Z,1185
2017-03-16T08:34:44.568Z,1235
2017-03-16T08:35:33.510Z,1345
2017-03-16T08:36:18.463Z,1865
2017-03-16T08:37:00.839Z,2505
2017-03-16T08:37:41.830Z,2900
2017-03-16T08:38:23.204Z,2855
2017-03-16T08:39:04.199Z,2995
2017-03-16T08:39:46.018Z,2890
2017-03-16T08:42:30.967Z,2855
2017-03-16T08:43:18.048Z,2895
2017-03-16T08:44:07.104Z,2925
2017-03-16T08:44:55.787Z,3030
2017-03-16T08:45:44.452Z,3165
2017-03-16T08:46:33.349Z,3250
2017-03-16T08:47:21.897Z,3165
2017-03-16T08:48:10.376Z,3225
2017-03-16T08:48:58.967Z,3220
2017-03-16T08:49:47.945Z,3180
2017-03-16T08:50:36.591Z,3275
2017-03-16T08:51:24.917Z,3305
2017-03-16T08:52:13.566Z,3255
2017-03-16T08:53:02.120Z,3305
2017-03-16T08:55:39.001Z,3285
2017-03-16T08:56:28.215Z,3325
2017-03-16T08:57:16.550Z,3415
2017-03-16T08:58:05.140Z,3415
2017-03-16T08:58:53.846Z,3450
2017-03-16T08:59:42.584Z,3180
2017-03-16T09:00:31.154Z,3485
2017-03-16T09:01:20.922Z,3610
2017-03-16T09:02:09.876Z,3610
2017-03-16T09:02:58.373Z,3550
2017-03-16T09:03:46.976Z,3720
2017-03-16T09:04:29.973Z,3790
2017-03-16T09:05:11.810Z,3840
2017-03-16T09:05:53.893Z,3925
2017-03-16T09:06:34.254Z,3865
2017-03-16T09:07:16.075Z,3825
2017-03-16T09:07:57.347Z,3870
2017-03-16T09:08:44.595Z,3995
2017-03-16T09:09:25.710Z,3580
2017-03-16T09:10:06.683Z,3765
2017-03-16T09:12:31.977Z,3640
2017-03-16T09:13:19.646Z,3790
2017-03-16T09:14:08.208Z,3855
2017-03-16T09:14:57.432Z,4025
2017-03-16T09:15:45.677Z,4030
2017-03-16T09:16:34.704Z,3940
2017-03-16T09:17:23.089Z,4015
2017-03-16T09:18:11.847Z,4145
2017-03-16T09:19:00.862Z,4025
2017-03-16T09:19:49.623Z,4120
2017-03-16T09:20:38.380Z,4035
2017-03-16T09:21:26.969Z,3780
2017-03-16T09:22:15.712Z,3305
2017-03-16T09:23:04.485Z,3580
2017-03-16T09:25:28.497Z,4095
2017-03-16T09:26:16.624Z,3995
2017-03-16T09:27:05.481Z,3370
2017-03-16T09:27:54.271Z,3380
2017-03-16T09:28:43.531Z,3960
2017-03-16T09:29:32.705Z,3965
2017-03-16T09:30:21.834Z,4100
2017-03-16T09:31:10.429Z,4055
2017-03-16T09:31:59.590Z,3850
2017-03-16T09:32:48.645Z,3880
2017-03-16T09:33:38.094Z,3725
2017-03-16T09:34:26.595Z,3815
2017-03-16T09:35:15.314Z,3675
2017-03-16T09:36:04.600Z,3570
2017-03-16T09:36:53.049Z,3600
2017-03-16T09:37:41.178Z,3330
2017-03-16T09:38:30.750Z,2405
2017-03-16T09:39:19.314Z,3930
2017-03-16T09:40:08.079Z,4080
2017-03-16T09:42:31.316Z,3805
2017-03-16T09:43:20.236Z,3545
2017-03-16T09:44:09.211Z,3520
2017-03-16T09:44:57.539Z,3570
2017-03-16T09:45:46.368Z,3680
2017-03-16T09:46:35.066Z,3895
2017-03-16T09:47:23.972Z,3920
2017-03-16T09:50:03.561Z,3710
2017-03-16T09:50:52.249Z,3845
2017-03-16T09:51:41.209Z,3705
2017-03-16T09:52:29.825Z,4055
2017-03-16T09:53:18.051Z,3925
2017-03-16T09:54:06.978Z,3750
2017-03-16T09:54:55.849Z,3915
2017-03-16T09:55:44.908Z,3885
2017-03-16T09:56:33.275Z,3715
2017-03-16T09:57:23.180Z,3975
2017-03-16T09:58:11.511Z,4155
2017-03-16T09:59:00.360Z,4455
2017-03-16T09:59:49.174Z,4265
2017-03-16T10:00:38.051Z,4420
2017-03-16T10:01:26.922Z,4310
2017-03-16T10:02:16.672Z,4220
2017-03-16T10:03:04.964Z,4040
2017-03-16T10:03:53.706Z,3850
2017-03-16T10:04:42.681Z,3885
2017-03-16T10:05:31.478Z,4120
2017-03-16T10:06:14.140Z,4000
2017-03-16T10:07:01.192Z,4060
2017-03-16T10:07:43.164Z,4100
2017-03-16T10:08:28.168Z,4115
2017-03-16T10:09:10.196Z,4010
2017-03-16T10:09:51.374Z,4015
2017-03-16T10:10:33.177Z,3850
2017-03-16T10:11:13.655Z,3505
2017-03-16T10:11:54.465Z,3430
2017-03-16T10:12:41.219Z,3365
2017-03-16T10:13:30.634Z,3170
2017-03-16T10:14:12.154Z,3310
2017-03-16T10:14:53.187Z,3335
2017-03-16T10:15:33.651Z,3240
2017-03-16T10:16:16.626Z,3220
2017-03-16T10:16:58.042Z,3290
2017-03-16T10:17:43.214Z,3360
2017-03-16T10:18:23.684Z,3595
2017-03-16T10:19:06.565Z,3975
2017-03-16T10:19:47.784Z,4010
2017-03-16T10:20:35.668Z,4260
2017-03-16T10:21:25.714Z,4415
2017-03-16T10:22:09.067Z,4275
2017-03-16T10:22:49.555Z,4710
2017-03-16T10:23:35.715Z,4655
2017-03-16T10:24:22.624Z,3885
2017-03-16T10:25:08.239Z,4075
2017-03-16T10:27:46.411Z,3860
2017-03-16T10:28:35.582Z,3700
2017-03-16T10:29:25.057Z,3955
2017-03-16T10:30:13.711Z,3610
2017-03-16T10:31:02.653Z,3395
2017-03-16T10:44:00.855Z,3985
2017-03-16T10:44:49.467Z,3845
2017-03-16T10:45:38.184Z,3870
2017-03-16T10:54:57.612Z,4205
2017-03-16T10:57:20.382Z,5125
2017-03-16T10:58:08.663Z,4905
2017-03-16T10:58:56.713Z,4625
2017-03-16T10:59:43.421Z,4490
2017-03-16T11:00:32.061Z,4455
2017-03-16T11:09:59.291Z,4595
2017-03-16T11:10:47.491Z,4465
2017-03-16T11:11:35.319Z,4770
2017-03-16T11:12:23.918Z,4780
2017-03-16T11:14:42.993Z,4645
2017-03-16T11:15:31.703Z,4730
2017-03-16T11:22:13.258Z,4740
2017-03-16T11:23:02.096Z,4660
2017-03-16T11:28:58.243Z,4825
2017-03-16T11:29:47.101Z,4465
2017-03-16T11:30:35.530Z,4640
2017-03-16T11:31:24.339Z,4765
2017-03-16T11:32:13.207Z,4845
2017-03-16T11:33:01.961Z,4755
2017-03-16T11:33:50.157Z,4435
2017-03-16T11:34:38.665Z,4370
2017-03-16T11:35:27.537Z,4420
2017-03-16T11:36:15.924Z,4415
2017-03-16T11:37:04.829Z,4395
2017-03-16T11:37:53.313Z,4385
2017-03-16T11:38:42.096Z,4445
2017-03-16T11:39:30.623Z,4515
2017-03-16T11:40:19.379Z,4460
2017-03-16T11:41:08.128Z,4545
2017-03-16T11:41:56.661Z,4585
2017-03-16T11:42:45.104Z,4675
2017-03-16T11:43:33.586Z,4725
2017-03-16T11:44:14.617Z,4695
2017-03-16T11:44:56.670Z,4585
2017-03-16T11:45:37.142Z,4510
2017-03-16T11:46:17.714Z,4560
2017-03-16T11:46:58.160Z,4715
2017-03-16T11:47:39.385Z,4775
2017-03-16T11:48:21.316Z,4720
2017-03-16T11:56:52.440Z,4325
2017-03-16T11:57:41.284Z,4235
2017-03-16T11:58:29.900Z,4440
2017-03-16T11:59:18.132Z,4335
2017-03-16T12:00:06.626Z,4270
2017-03-16T12:00:55.650Z,4365
2017-03-16T12:01:44.057Z,4410
2017-03-16T12:02:32.948Z,4275
2017-03-16T12:03:21.671Z,4185
2017-03-16T12:04:10.027Z,4155
2017-03-16T12:04:58.849Z,4270
2017-03-16T12:05:47.518Z,4525
2017-03-16T12:06:36.355Z,4320
2017-03-16T12:08:55.917Z,4640
2017-03-16T12:09:44.253Z,4360
2017-03-16T12:10:33.271Z,4295
2017-03-16T12:11:21.911Z,4195
2017-03-16T12:12:10.605Z,4100
2017-03-16T12:12:59.193Z,4125
2017-03-16T12:13:48.066Z,4065
2017-03-16T12:14:36.446Z,4000
2017-03-16T12:15:25.260Z,4105
2017-03-16T12:16:13.795Z,4205
2017-03-16T12:17:02.312Z,4275
2017-03-16T12:17:51.071Z,4115
2017-03-16T12:18:39.904Z,4240
2017-03-16T12:19:28.269Z,4440
2017-03-16T12:20:17.067Z,4400
2017-03-16T12:21:05.867Z,4230
2017-03-16T12:21:55.218Z,4075
2017-03-16T12:24:15.121Z,4010
2017-03-16T12:25:04.849Z,4040
2017-03-16T12:25:53.619Z,4095
2017-03-16T12:26:42.346Z,4125
2017-03-16T12:27:30.984Z,4080
2017-03-16T12:28:19.506Z,4190
2017-03-16T12:29:08.113Z,4075
2017-03-16T12:29:57.231Z,4070
2017-03-16T12:30:45.597Z,4540
2017-03-16T12:31:34.969Z,4410
2017-03-16T12:32:23.042Z,4185
2017-03-16T12:33:11.727Z,4070
2017-03-16T12:34:00.497Z,4100
2017-03-16T12:34:48.480Z,4085
2017-03-16T12:35:37.458Z,4110
2017-03-16T12:36:26.361Z,4025
2017-03-16T12:37:14.826Z,4000
2017-03-16T12:38:03.402Z,4180
2017-03-16T12:38:52.315Z,4070
2017-03-16T12:39:40.529Z,3905
2017-03-16T12:42:19.753Z,2440
2017-03-16T12:43:08.342Z,1380
2017-03-16T12:43:56.737Z,1250
2017-03-16T12:44:45.468Z,1195
2017-03-16T12:45:34.253Z,1150
2017-03-16T12:46:23.762Z,1105
2017-03-16T12:47:12.772Z,1080
2017-03-16T12:48:01.674Z,1050
2017-03-16T12:48:50.690Z,1020
2017-03-16T12:49:39.327Z,995
2017-03-16T12:50:27.978Z,995
2017-03-16T12:51:16.498Z,990
2017-03-16T12:52:05.246Z,970
2017-03-16T12:54:27.772Z,935
2017-03-16T12:55:16.467Z,925
2017-03-16T12:56:04.999Z,920
2017-03-16T12:56:53.854Z,915
2017-03-16T12:57:42.298Z,910
2017-03-16T12:58:31.779Z,905
2017-03-16T12:59:19.756Z,900
2017-03-16T13:00:08.444Z,880
2017-03-16T13:03:02.374Z,860
2017-03-16T13:03:51.334Z,845
2017-03-16T13:04:39.802Z,845
2017-03-16T13:05:28.845Z,835
2017-03-16T13:06:17.367Z,825
2017-03-16T13:07:05.633Z,815
2017-03-16T13:07:54.789Z,810
2017-03-16T13:08:43.347Z,800
2017-03-16T13:09:31.877Z,795
2017-03-16T13:10:20.371Z,785
2017-03-16T13:11:09.291Z,775
2017-03-16T13:11:58.064Z,770
2017-03-16T13:12:46.509Z,770
2017-03-16T13:13:35.031Z,765
2017-03-16T13:14:23.853Z,760
2017-03-16T13:15:12.088Z,750
2017-03-16T13:16:01.300Z,750
2017-03-16T13:16:49.585Z,755
2017-03-16T13:17:38.340Z,745
2017-03-16T13:18:26.909Z,750
2017-03-16T13:19:15.568Z,740
2017-03-16T13:20:04.380Z,735
2017-03-16T13:20:53.319Z,730
2017-03-16T13:21:41.387Z,725
2017-03-16T13:22:30.764Z,725
2017-03-16T13:23:19.079Z,720
2017-03-16T13:24:07.985Z,715
2017-03-16T13:24:56.800Z,715
2017-03-16T13:25:45.069Z,710
2017-03-16T13:26:34.233Z,705
2017-03-16T13:27:23.279Z,700
2017-03-16T13:28:11.842Z,700
2017-03-16T13:29:00.341Z,695
2017-03-16T13:29:49.211Z,680
2017-03-16T13:30:37.525Z,675
2017-03-16T13:31:26.703Z,670
2017-03-16T13:32:15.294Z,665
2017-03-16T13:33:04.061Z,660
2017-03-16T13:33:53.601Z,655
2017-03-16T13:34:42.185Z,650
2017-03-16T13:35:30.835Z,655
2017-03-16T13:36:19.400Z,645
2017-03-16T13:37:08.258Z,640
2017-03-16T13:37:57.547Z,640
2017-03-16T13:38:45.530Z,640
2017-03-16T13:39:33.900Z,645
2017-03-16T13:40:22.664Z,640
2017-03-16T13:41:11.691Z,640
2017-03-16T13:42:00.068Z,640
2017-03-16T13:42:48.923Z,635
2017-03-16T13:43:37.897Z,630
2017-03-16T13:44:26.786Z,625
2017-03-16T13:45:15.057Z,615
2017-03-16T13:46:04.260Z,605
2017-03-16T13:46:52.554Z,595
2017-03-16T13:47:41.777Z,555
2017-03-16T13:48:30.508Z,550
2017-03-16T13:49:19.200Z,545
2017-03-16T13:51:42.086Z,550
2017-03-16T13:52:30.287Z,540
2017-03-16T13:53:19.539Z,530
2017-03-16T13:54:08.206Z,530
2017-03-16T13:54:57.095Z,515
2017-03-16T13:55:45.492Z,510
2017-03-16T13:56:33.160Z,515
2017-03-16T13:57:22.410Z,520
2017-03-16T13:58:10.920Z,515
2017-03-16T13:58:59.912Z,510
2017-03-16T13:59:48.486Z,510
2017-03-16T14:00:37.412Z,510
2017-03-16T14:01:25.611Z,515
2017-03-16T14:02:14.430Z,510
2017-03-16T14:03:02.927Z,510
2017-03-16T14:03:44.352Z,510
2017-03-16T14:04:25.350Z,505
2017-03-16T14:05:06.494Z,500
2017-03-16T14:07:39.709Z,485
2017-03-16T14:08:27.750Z,480
2017-03-16T14:09:16.221Z,475
2017-03-16T14:10:05.233Z,475
2017-03-16T14:10:54.284Z,470
2017-03-16T14:11:42.577Z,465
2017-03-16T14:12:33.419Z,460
2017-03-16T14:13:21.941Z,465
2017-03-16T14:14:11.294Z,455
2017-03-16T14:14:51.307Z,450
2017-03-16T14:15:31.751Z,445
2017-03-16T14:16:12.253Z,445
2017-03-16T14:16:55.394Z,440
2017-03-16T14:17:35.858Z,435
2017-03-16T14:18:16.283Z,435
2017-03-16T14:18:59.144Z,430